sensor_id;sensor_type;location;lat;lon;timestamp;P1;durP1;ratioP1;P2;durP2;ratioP2
46463;SDS011;32161;48.148;-1.554;2022-12-18T00:01:23;36.08;;;19.35;;
46463;SDS011;32161;48.148;-1.554;2022-12-18T00:03:52;32.78;;;18.92;;
46463;SDS011;32161;48.148;-1.554;2022-12-18T00:06:22;38.70;;;20.20;;
46463;SDS011;32161;48.148;-1.554;2022-12-18T00:08:51;37.63;;;20.10;;
46463;SDS011;32161;48.148;-1.554;2022-12-18T00:11:22;35.15;;;20.33;;
46463;SDS011;32161;48.148;-1.554;2022-12-18T00:16:23;35.40;;;18.88;;
46463;SDS011;32161;48.148;-1.554;2022-12-18T00:18:53;31.17;;;18.45;;
46463;SDS011;32161;48.148;-1.554;2022-12-18T00:21:22;35.13;;;19.77;;
46463;SDS011;32161;48.148;-1.554;2022-12-18T00:23:50;38.65;;;19.02;;
46463;SDS011;32161;48.148;-1.554;2022-12-18T00:26:20;32.85;;;18.23;;
46463;SDS011;32161;48.148;-1.554;2022-12-18T00:28:51;34.65;;;20.58;;
46463;SDS011;32161;48.148;-1.554;2022-12-18T00:31:22;38.22;;;19.40;;
46463;SDS011;32161;48.148;-1.554;2022-12-18T00:33:52;41.10;;;20.33;;
46463;SDS011;32161;48.148;-1.554;2022-12-18T00:36:22;33.92;;;19.58;;
46463;SDS011;32161;48.148;-1.554;2022-12-18T00:38:52;29.83;;;17.42;;
46463;SDS011;32161;48.148;-1.554;2022-12-18T00:41:21;36.13;;;20.25;;
46463;SDS011;32161;48.148;-1.554;2022-12-18T00:44:20;32.70;;;18.58;;
46463;SDS011;32161;48.148;-1.554;2022-12-18T00:46:48;34.15;;;18.73;;
46463;SDS011;32161;48.148;-1.554;2022-12-18T00:49:16;34.55;;;19.45;;
46463;SDS011;32161;48.148;-1.554;2022-12-18T00:51:45;35.72;;;19.60;;
46463;SDS011;32161;48.148;-1.554;2022-12-18T00:54:12;35.65;;;20.20;;
46463;SDS011;32161;48.148;-1.554;2022-12-18T00:56:40;38.05;;;19.88;;
46463;SDS011;32161;48.148;-1.554;2022-12-18T00:59:08;30.27;;;19.13;;
46463;SDS011;32161;48.148;-1.554;2022-12-18T01:01:37;34.95;;;17.70;;
46463;SDS011;32161;48.148;-1.554;2022-12-18T01:04:05;32.78;;;18.85;;
46463;SDS011;32161;48.148;-1.554;2022-12-18T01:06:32;37.22;;;21.48;;
46463;SDS011;32161;48.148;-1.554;2022-12-18T01:09:00;36.08;;;19.17;;
46463;SDS011;32161;48.148;-1.554;2022-12-18T01:11:28;31.33;;;18.33;;
46463;SDS011;32161;48.148;-1.554;2022-12-18T01:13:56;36.33;;;19.15;;
46463;SDS011;32161;48.148;-1.554;2022-12-18T01:16:23;32.92;;;19.00;;
46463;SDS011;32161;48.148;-1.554;2022-12-18T01:18:53;34.05;;;19.23;;
46463;SDS011;32161;48.148;-1.554;2022-12-18T01:21:21;35.45;;;19.17;;
46463;SDS011;32161;48.148;-1.554;2022-12-18T01:23:50;37.30;;;20.75;;
46463;SDS011;32161;48.148;-1.554;2022-12-18T01:26:20;34.83;;;18.83;;
46463;SDS011;32161;48.148;-1.554;2022-12-18T01:28:48;38.05;;;19.30;;
46463;SDS011;32161;48.148;-1.554;2022-12-18T01:31:17;39.33;;;19.80;;
46463;SDS011;32161;48.148;-1.554;2022-12-18T01:33:48;33.15;;;17.90;;
46463;SDS011;32161;48.148;-1.554;2022-12-18T01:36:19;32.50;;;17.95;;
46463;SDS011;32161;48.148;-1.554;2022-12-18T01:38:48;34.47;;;19.10;;
46463;SDS011;32161;48.148;-1.554;2022-12-18T01:41:19;35.17;;;19.70;;
46463;SDS011;32161;48.148;-1.554;2022-12-18T01:43:50;34.92;;;19.55;;
46463;SDS011;32161;48.148;-1.554;2022-12-18T01:46:20;34.47;;;17.83;;
46463;SDS011;32161;48.148;-1.554;2022-12-18T01:48:54;36.15;;;19.60;;
46463;SDS011;32161;48.148;-1.554;2022-12-18T01:51:28;36.17;;;20.00;;
46463;SDS011;32161;48.148;-1.554;2022-12-18T01:53:57;30.97;;;18.23;;
46463;SDS011;32161;48.148;-1.554;2022-12-18T01:56:25;36.20;;;20.13;;
46463;SDS011;32161;48.148;-1.554;2022-12-18T01:58:54;33.00;;;18.98;;
46463;SDS011;32161;48.148;-1.554;2022-12-18T02:01:26;32.08;;;17.52;;
46463;SDS011;32161;48.148;-1.554;2022-12-18T02:03:56;34.55;;;18.10;;
46463;SDS011;32161;48.148;-1.554;2022-12-18T02:06:48;33.70;;;17.27;;
46463;SDS011;32161;48.148;-1.554;2022-12-18T02:09:27;38.65;;;19.20;;
46463;SDS011;32161;48.148;-1.554;2022-12-18T02:12:02;32.60;;;17.42;;
46463;SDS011;32161;48.148;-1.554;2022-12-18T02:14:40;32.70;;;18.27;;
46463;SDS011;32161;48.148;-1.554;2022-12-18T02:17:16;38.88;;;19.38;;
46463;SDS011;32161;48.148;-1.554;2022-12-18T02:22:33;28.73;;;15.88;;
46463;SDS011;32161;48.148;-1.554;2022-12-18T02:25:13;33.67;;;18.48;;
46463;SDS011;32161;48.148;-1.554;2022-12-18T02:27:54;32.15;;;18.55;;
46463;SDS011;32161;48.148;-1.554;2022-12-18T02:30:25;34.72;;;18.30;;
46463;SDS011;32161;48.148;-1.554;2022-12-18T02:32:57;33.78;;;18.98;;
46463;SDS011;32161;48.148;-1.554;2022-12-18T02:35:27;35.53;;;18.75;;
46463;SDS011;32161;48.148;-1.554;2022-12-18T02:37:57;36.10;;;19.73;;
46463;SDS011;32161;48.148;-1.554;2022-12-18T02:40:25;35.25;;;17.90;;
46463;SDS011;32161;48.148;-1.554;2022-12-18T02:42:56;36.53;;;19.45;;
46463;SDS011;32161;48.148;-1.554;2022-12-18T02:45:33;35.08;;;18.55;;
46463;SDS011;32161;48.148;-1.554;2022-12-18T02:48:01;32.85;;;17.48;;
46463;SDS011;32161;48.148;-1.554;2022-12-18T02:50:30;37.40;;;19.08;;
46463;SDS011;32161;48.148;-1.554;2022-12-18T02:53:04;32.85;;;18.10;;
46463;SDS011;32161;48.148;-1.554;2022-12-18T02:55:43;37.20;;;19.42;;
46463;SDS011;32161;48.148;-1.554;2022-12-18T02:58:27;34.08;;;17.73;;
46463;SDS011;32161;48.148;-1.554;2022-12-18T03:01:04;34.45;;;17.77;;
46463;SDS011;32161;48.148;-1.554;2022-12-18T03:03:40;28.73;;;17.25;;
46463;SDS011;32161;48.148;-1.554;2022-12-18T03:06:12;33.33;;;17.42;;
46463;SDS011;32161;48.148;-1.554;2022-12-18T03:08:48;34.33;;;18.05;;
46463;SDS011;32161;48.148;-1.554;2022-12-18T03:11:22;31.20;;;18.27;;
46463;SDS011;32161;48.148;-1.554;2022-12-18T03:14:07;31.17;;;17.42;;
46463;SDS011;32161;48.148;-1.554;2022-12-18T03:16:36;35.45;;;18.15;;
46463;SDS011;32161;48.148;-1.554;2022-12-18T03:19:06;33.67;;;18.80;;
46463;SDS011;32161;48.148;-1.554;2022-12-18T03:21:41;32.58;;;18.38;;
46463;SDS011;32161;48.148;-1.554;2022-12-18T03:24:12;34.38;;;18.42;;
46463;SDS011;32161;48.148;-1.554;2022-12-18T03:26:41;33.33;;;18.27;;
46463;SDS011;32161;48.148;-1.554;2022-12-18T03:29:15;35.55;;;19.40;;
46463;SDS011;32161;48.148;-1.554;2022-12-18T03:31:49;32.88;;;19.00;;
46463;SDS011;32161;48.148;-1.554;2022-12-18T03:34:23;35.17;;;18.98;;
46463;SDS011;32161;48.148;-1.554;2022-12-18T03:36:55;33.85;;;17.77;;
46463;SDS011;32161;48.148;-1.554;2022-12-18T03:39:22;32.90;;;18.42;;
46463;SDS011;32161;48.148;-1.554;2022-12-18T03:41:51;27.80;;;17.27;;
46463;SDS011;32161;48.148;-1.554;2022-12-18T03:44:27;32.33;;;18.27;;
46463;SDS011;32161;48.148;-1.554;2022-12-18T03:47:04;33.40;;;18.67;;
46463;SDS011;32161;48.148;-1.554;2022-12-18T03:49:38;32.45;;;18.70;;
46463;SDS011;32161;48.148;-1.554;2022-12-18T03:52:15;32.35;;;18.10;;
46463;SDS011;32161;48.148;-1.554;2022-12-18T03:54:47;33.03;;;18.60;;
46463;SDS011;32161;48.148;-1.554;2022-12-18T03:57:17;30.42;;;17.17;;
46463;SDS011;32161;48.148;-1.554;2022-12-18T03:59:50;34.55;;;18.65;;
46463;SDS011;32161;48.148;-1.554;2022-12-18T04:02:23;38.60;;;17.95;;
46463;SDS011;32161;48.148;-1.554;2022-12-18T04:04:51;30.70;;;18.38;;
46463;SDS011;32161;48.148;-1.554;2022-12-18T04:07:23;34.40;;;18.60;;
46463;SDS011;32161;48.148;-1.554;2022-12-18T04:09:51;32.60;;;19.15;;
46463;SDS011;32161;48.148;-1.554;2022-12-18T04:12:23;32.38;;;17.17;;
46463;SDS011;32161;48.148;-1.554;2022-12-18T04:14:53;33.33;;;18.15;;
46463;SDS011;32161;48.148;-1.554;2022-12-18T04:17:21;35.25;;;18.67;;
46463;SDS011;32161;48.148;-1.554;2022-12-18T04:19:49;36.65;;;18.38;;
46463;SDS011;32161;48.148;-1.554;2022-12-18T04:22:17;31.10;;;17.13;;
46463;SDS011;32161;48.148;-1.554;2022-12-18T04:24:44;37.95;;;18.95;;
46463;SDS011;32161;48.148;-1.554;2022-12-18T04:27:12;32.42;;;18.48;;
46463;SDS011;32161;48.148;-1.554;2022-12-18T04:29:40;34.65;;;18.50;;
46463;SDS011;32161;48.148;-1.554;2022-12-18T04:32:09;34.58;;;19.50;;
46463;SDS011;32161;48.148;-1.554;2022-12-18T04:34:37;31.50;;;18.45;;
46463;SDS011;32161;48.148;-1.554;2022-12-18T04:37:04;32.20;;;17.85;;
46463;SDS011;32161;48.148;-1.554;2022-12-18T04:39:32;33.55;;;16.92;;
46463;SDS011;32161;48.148;-1.554;2022-12-18T04:42:00;34.97;;;19.05;;
46463;SDS011;32161;48.148;-1.554;2022-12-18T04:44:28;30.02;;;17.20;;
46463;SDS011;32161;48.148;-1.554;2022-12-18T04:46:56;32.67;;;18.00;;
46463;SDS011;32161;48.148;-1.554;2022-12-18T04:49:25;30.05;;;17.77;;
46463;SDS011;32161;48.148;-1.554;2022-12-18T04:51:53;31.63;;;17.73;;
46463;SDS011;32161;48.148;-1.554;2022-12-18T04:54:20;31.83;;;18.35;;
46463;SDS011;32161;48.148;-1.554;2022-12-18T04:56:48;33.80;;;18.17;;
46463;SDS011;32161;48.148;-1.554;2022-12-18T04:59:15;31.35;;;18.02;;
46463;SDS011;32161;48.148;-1.554;2022-12-18T05:01:43;28.58;;;16.80;;
46463;SDS011;32161;48.148;-1.554;2022-12-18T05:04:11;28.10;;;17.05;;
46463;SDS011;32161;48.148;-1.554;2022-12-18T05:06:40;32.50;;;17.27;;
46463;SDS011;32161;48.148;-1.554;2022-12-18T05:09:08;29.38;;;17.48;;
46463;SDS011;32161;48.148;-1.554;2022-12-18T05:11:35;35.45;;;19.27;;
46463;SDS011;32161;48.148;-1.554;2022-12-18T05:14:03;31.58;;;17.88;;
46463;SDS011;32161;48.148;-1.554;2022-12-18T05:16:31;29.88;;;17.08;;
46463;SDS011;32161;48.148;-1.554;2022-12-18T05:18:59;32.28;;;17.60;;
46463;SDS011;32161;48.148;-1.554;2022-12-18T05:21:26;38.67;;;17.98;;
46463;SDS011;32161;48.148;-1.554;2022-12-18T05:23:55;33.72;;;17.65;;
46463;SDS011;32161;48.148;-1.554;2022-12-18T05:26:23;31.40;;;19.05;;
46463;SDS011;32161;48.148;-1.554;2022-12-18T05:28:51;30.58;;;16.80;;
46463;SDS011;32161;48.148;-1.554;2022-12-18T05:31:19;28.10;;;16.80;;
46463;SDS011;32161;48.148;-1.554;2022-12-18T05:33:46;29.15;;;17.88;;
46463;SDS011;32161;48.148;-1.554;2022-12-18T05:36:14;28.92;;;17.38;;
46463;SDS011;32161;48.148;-1.554;2022-12-18T05:38:43;29.85;;;16.92;;
46463;SDS011;32161;48.148;-1.554;2022-12-18T05:41:12;28.52;;;16.13;;
46463;SDS011;32161;48.148;-1.554;2022-12-18T05:43:40;27.80;;;16.30;;
46463;SDS011;32161;48.148;-1.554;2022-12-18T05:46:08;32.13;;;18.65;;
46463;SDS011;32161;48.148;-1.554;2022-12-18T05:48:39;31.02;;;17.15;;
46463;SDS011;32161;48.148;-1.554;2022-12-18T05:51:08;28.75;;;16.38;;
46463;SDS011;32161;48.148;-1.554;2022-12-18T05:53:37;29.98;;;17.40;;
46463;SDS011;32161;48.148;-1.554;2022-12-18T05:56:06;29.42;;;17.00;;
46463;SDS011;32161;48.148;-1.554;2022-12-18T05:58:36;28.60;;;16.48;;
46463;SDS011;32161;48.148;-1.554;2022-12-18T06:01:08;31.75;;;17.42;;
46463;SDS011;32161;48.148;-1.554;2022-12-18T06:03:38;33.33;;;16.42;;
46463;SDS011;32161;48.148;-1.554;2022-12-18T06:06:12;29.63;;;17.25;;
46463;SDS011;32161;48.148;-1.554;2022-12-18T06:08:41;28.27;;;16.25;;
46463;SDS011;32161;48.148;-1.554;2022-12-18T06:11:09;28.60;;;16.45;;
46463;SDS011;32161;48.148;-1.554;2022-12-18T06:13:38;30.00;;;16.33;;
46463;SDS011;32161;48.148;-1.554;2022-12-18T06:16:06;30.98;;;17.17;;
46463;SDS011;32161;48.148;-1.554;2022-12-18T06:18:34;30.05;;;17.05;;
46463;SDS011;32161;48.148;-1.554;2022-12-18T06:21:02;31.80;;;16.67;;
46463;SDS011;32161;48.148;-1.554;2022-12-18T06:23:29;30.27;;;16.70;;
46463;SDS011;32161;48.148;-1.554;2022-12-18T06:25:57;29.92;;;17.17;;
46463;SDS011;32161;48.148;-1.554;2022-12-18T06:28:25;28.15;;;16.08;;
46463;SDS011;32161;48.148;-1.554;2022-12-18T06:30:54;29.58;;;17.60;;
46463;SDS011;32161;48.148;-1.554;2022-12-18T06:33:21;31.42;;;16.80;;
46463;SDS011;32161;48.148;-1.554;2022-12-18T06:35:52;30.60;;;16.58;;
46463;SDS011;32161;48.148;-1.554;2022-12-18T06:38:19;28.63;;;15.88;;
46463;SDS011;32161;48.148;-1.554;2022-12-18T06:40:47;27.40;;;15.25;;
46463;SDS011;32161;48.148;-1.554;2022-12-18T06:43:15;27.55;;;15.63;;
46463;SDS011;32161;48.148;-1.554;2022-12-18T06:45:42;27.40;;;17.15;;
46463;SDS011;32161;48.148;-1.554;2022-12-18T06:48:12;24.58;;;15.45;;
46463;SDS011;32161;48.148;-1.554;2022-12-18T06:50:41;26.10;;;16.92;;
46463;SDS011;32161;48.148;-1.554;2022-12-18T06:53:09;25.67;;;15.20;;
46463;SDS011;32161;48.148;-1.554;2022-12-18T06:55:37;27.33;;;16.92;;
46463;SDS011;32161;48.148;-1.554;2022-12-18T06:58:04;27.52;;;15.23;;
46463;SDS011;32161;48.148;-1.554;2022-12-18T07:00:32;28.90;;;15.50;;
46463;SDS011;32161;48.148;-1.554;2022-12-18T07:03:00;27.48;;;15.38;;
46463;SDS011;32161;48.148;-1.554;2022-12-18T07:05:29;29.65;;;16.85;;
46463;SDS011;32161;48.148;-1.554;2022-12-18T07:07:57;29.17;;;16.05;;
46463;SDS011;32161;48.148;-1.554;2022-12-18T07:10:25;27.40;;;17.65;;
46463;SDS011;32161;48.148;-1.554;2022-12-18T07:12:53;30.55;;;15.40;;
46463;SDS011;32161;48.148;-1.554;2022-12-18T07:15:21;29.73;;;16.60;;
46463;SDS011;32161;48.148;-1.554;2022-12-18T07:17:48;27.00;;;15.80;;
46463;SDS011;32161;48.148;-1.554;2022-12-18T07:20:16;30.33;;;16.58;;
46463;SDS011;32161;48.148;-1.554;2022-12-18T07:22:45;28.48;;;16.73;;
46463;SDS011;32161;48.148;-1.554;2022-12-18T07:25:13;29.58;;;16.80;;
46463;SDS011;32161;48.148;-1.554;2022-12-18T07:27:41;27.75;;;16.70;;
46463;SDS011;32161;48.148;-1.554;2022-12-18T07:30:09;31.05;;;17.75;;
46463;SDS011;32161;48.148;-1.554;2022-12-18T07:32:38;29.75;;;16.38;;
46463;SDS011;32161;48.148;-1.554;2022-12-18T07:35:05;27.85;;;17.30;;
46463;SDS011;32161;48.148;-1.554;2022-12-18T07:37:33;31.00;;;16.48;;
46463;SDS011;32161;48.148;-1.554;2022-12-18T07:40:02;29.25;;;17.73;;
46463;SDS011;32161;48.148;-1.554;2022-12-18T07:42:31;28.85;;;16.88;;
46463;SDS011;32161;48.148;-1.554;2022-12-18T07:45:00;26.88;;;16.30;;
46463;SDS011;32161;48.148;-1.554;2022-12-18T07:47:28;30.65;;;16.80;;
46463;SDS011;32161;48.148;-1.554;2022-12-18T07:49:56;25.70;;;16.25;;
46463;SDS011;32161;48.148;-1.554;2022-12-18T07:52:23;30.52;;;17.95;;
46463;SDS011;32161;48.148;-1.554;2022-12-18T07:54:51;28.60;;;16.33;;
46463;SDS011;32161;48.148;-1.554;2022-12-18T07:57:20;31.10;;;16.52;;
46463;SDS011;32161;48.148;-1.554;2022-12-18T07:59:48;27.98;;;15.85;;
46463;SDS011;32161;48.148;-1.554;2022-12-18T08:02:16;28.75;;;17.60;;
46463;SDS011;32161;48.148;-1.554;2022-12-18T08:04:43;27.85;;;16.52;;
46463;SDS011;32161;48.148;-1.554;2022-12-18T08:07:11;35.13;;;18.27;;
46463;SDS011;32161;48.148;-1.554;2022-12-18T08:09:39;27.98;;;16.50;;
46463;SDS011;32161;48.148;-1.554;2022-12-18T08:12:07;29.10;;;17.25;;
46463;SDS011;32161;48.148;-1.554;2022-12-18T08:14:36;27.98;;;16.50;;
46463;SDS011;32161;48.148;-1.554;2022-12-18T08:17:03;29.75;;;16.30;;
46463;SDS011;32161;48.148;-1.554;2022-12-18T08:19:31;28.88;;;17.85;;
46463;SDS011;32161;48.148;-1.554;2022-12-18T08:21:58;26.02;;;16.10;;
46463;SDS011;32161;48.148;-1.554;2022-12-18T08:24:26;30.15;;;17.38;;
46463;SDS011;32161;48.148;-1.554;2022-12-18T08:26:54;27.67;;;16.80;;
46463;SDS011;32161;48.148;-1.554;2022-12-18T08:29:22;31.17;;;17.25;;
46463;SDS011;32161;48.148;-1.554;2022-12-18T08:31:51;28.55;;;16.67;;
46463;SDS011;32161;48.148;-1.554;2022-12-18T08:34:19;29.80;;;17.30;;
46463;SDS011;32161;48.148;-1.554;2022-12-18T08:36:46;29.05;;;17.10;;
46463;SDS011;32161;48.148;-1.554;2022-12-18T08:39:14;30.20;;;18.08;;
46463;SDS011;32161;48.148;-1.554;2022-12-18T08:41:42;28.52;;;16.92;;
46463;SDS011;32161;48.148;-1.554;2022-12-18T08:44:30;28.58;;;17.73;;
46463;SDS011;32161;48.148;-1.554;2022-12-18T08:47:04;28.67;;;17.33;;
46463;SDS011;32161;48.148;-1.554;2022-12-18T08:49:32;29.73;;;18.15;;
46463;SDS011;32161;48.148;-1.554;2022-12-18T08:52:01;27.58;;;16.88;;
46463;SDS011;32161;48.148;-1.554;2022-12-18T08:54:29;30.52;;;17.33;;
46463;SDS011;32161;48.148;-1.554;2022-12-18T08:56:57;28.50;;;18.10;;
46463;SDS011;32161;48.148;-1.554;2022-12-18T08:59:24;31.70;;;17.45;;
46463;SDS011;32161;48.148;-1.554;2022-12-18T09:01:53;30.73;;;17.60;;
46463;SDS011;32161;48.148;-1.554;2022-12-18T09:04:22;27.88;;;17.00;;
46463;SDS011;32161;48.148;-1.554;2022-12-18T09:06:50;32.30;;;18.17;;
46463;SDS011;32161;48.148;-1.554;2022-12-18T09:09:20;33.67;;;18.60;;
46463;SDS011;32161;48.148;-1.554;2022-12-18T09:11:48;32.30;;;17.70;;
46463;SDS011;32161;48.148;-1.554;2022-12-18T09:14:15;31.25;;;17.80;;
46463;SDS011;32161;48.148;-1.554;2022-12-18T09:16:43;31.70;;;18.55;;
46463;SDS011;32161;48.148;-1.554;2022-12-18T09:19:11;32.53;;;17.33;;
46463;SDS011;32161;48.148;-1.554;2022-12-18T09:21:41;35.83;;;17.50;;
46463;SDS011;32161;48.148;-1.554;2022-12-18T09:24:09;33.15;;;17.92;;
46463;SDS011;32161;48.148;-1.554;2022-12-18T09:26:39;31.55;;;17.85;;
46463;SDS011;32161;48.148;-1.554;2022-12-18T09:29:07;35.15;;;18.35;;
46463;SDS011;32161;48.148;-1.554;2022-12-18T09:31:35;28.05;;;16.40;;
46463;SDS011;32161;48.148;-1.554;2022-12-18T09:34:04;33.80;;;17.88;;
46463;SDS011;32161;48.148;-1.554;2022-12-18T09:36:33;31.17;;;18.00;;
46463;SDS011;32161;48.148;-1.554;2022-12-18T09:39:02;30.42;;;17.15;;
46463;SDS011;32161;48.148;-1.554;2022-12-18T09:41:41;29.45;;;17.25;;
46463;SDS011;32161;48.148;-1.554;2022-12-18T09:44:22;33.55;;;17.80;;
46463;SDS011;32161;48.148;-1.554;2022-12-18T09:46:54;32.55;;;17.42;;
46463;SDS011;32161;48.148;-1.554;2022-12-18T09:49:32;34.13;;;17.70;;
46463;SDS011;32161;48.148;-1.554;2022-12-18T09:52:08;29.95;;;17.05;;
46463;SDS011;32161;48.148;-1.554;2022-12-18T09:54:43;30.83;;;18.52;;
46463;SDS011;32161;48.148;-1.554;2022-12-18T09:57:17;32.28;;;18.88;;
46463;SDS011;32161;48.148;-1.554;2022-12-18T09:59:49;38.47;;;17.33;;
46463;SDS011;32161;48.148;-1.554;2022-12-18T10:02:23;33.60;;;17.48;;
46463;SDS011;32161;48.148;-1.554;2022-12-18T10:05:03;34.08;;;18.25;;
46463;SDS011;32161;48.148;-1.554;2022-12-18T10:07:38;35.15;;;17.38;;
46463;SDS011;32161;48.148;-1.554;2022-12-18T10:10:33;35.08;;;18.13;;
46463;SDS011;32161;48.148;-1.554;2022-12-18T10:13:09;34.70;;;17.50;;
46463;SDS011;32161;48.148;-1.554;2022-12-18T10:15:48;36.70;;;18.45;;
46463;SDS011;32161;48.148;-1.554;2022-12-18T10:18:31;36.10;;;18.65;;
46463;SDS011;32161;48.148;-1.554;2022-12-18T10:21:14;32.85;;;18.70;;
46463;SDS011;32161;48.148;-1.554;2022-12-18T10:23:49;38.45;;;17.42;;
46463;SDS011;32161;48.148;-1.554;2022-12-18T10:26:30;35.15;;;19.05;;
46463;SDS011;32161;48.148;-1.554;2022-12-18T10:28:59;38.35;;;20.13;;
46463;SDS011;32161;48.148;-1.554;2022-12-18T10:31:27;38.83;;;18.85;;
46463;SDS011;32161;48.148;-1.554;2022-12-18T10:33:55;38.65;;;19.50;;
46463;SDS011;32161;48.148;-1.554;2022-12-18T10:36:23;36.35;;;18.80;;
46463;SDS011;32161;48.148;-1.554;2022-12-18T10:38:50;37.63;;;20.00;;
46463;SDS011;32161;48.148;-1.554;2022-12-18T10:41:25;33.65;;;17.75;;
46463;SDS011;32161;48.148;-1.554;2022-12-18T10:44:11;31.42;;;18.65;;
46463;SDS011;32161;48.148;-1.554;2022-12-18T10:46:44;36.10;;;18.80;;
46463;SDS011;32161;48.148;-1.554;2022-12-18T10:49:21;37.95;;;19.55;;
46463;SDS011;32161;48.148;-1.554;2022-12-18T10:51:52;37.53;;;18.80;;
46463;SDS011;32161;48.148;-1.554;2022-12-18T10:54:45;35.17;;;19.63;;
46463;SDS011;32161;48.148;-1.554;2022-12-18T10:57:17;33.38;;;17.52;;
46463;SDS011;32161;48.148;-1.554;2022-12-18T10:59:58;33.50;;;18.60;;
46463;SDS011;32161;48.148;-1.554;2022-12-18T11:02:46;33.88;;;18.77;;
46463;SDS011;32161;48.148;-1.554;2022-12-18T11:05:24;34.60;;;17.13;;
46463;SDS011;32161;48.148;-1.554;2022-12-18T11:07:55;34.78;;;16.98;;
46463;SDS011;32161;48.148;-1.554;2022-12-18T11:10:26;33.83;;;17.33;;
46463;SDS011;32161;48.148;-1.554;2022-12-18T11:13:08;32.95;;;18.27;;
46463;SDS011;32161;48.148;-1.554;2022-12-18T11:15:40;26.33;;;16.67;;
46463;SDS011;32161;48.148;-1.554;2022-12-18T11:18:15;33.88;;;18.40;;
46463;SDS011;32161;48.148;-1.554;2022-12-18T11:20:50;33.35;;;17.25;;
46463;SDS011;32161;48.148;-1.554;2022-12-18T11:23:21;27.67;;;16.73;;
46463;SDS011;32161;48.148;-1.554;2022-12-18T11:25:54;25.90;;;16.52;;
46463;SDS011;32161;48.148;-1.554;2022-12-18T11:28:34;29.45;;;18.15;;
46463;SDS011;32161;48.148;-1.554;2022-12-18T11:31:19;34.90;;;19.23;;
46463;SDS011;32161;48.148;-1.554;2022-12-18T11:33:52;35.38;;;17.80;;
46463;SDS011;32161;48.148;-1.554;2022-12-18T11:36:29;30.27;;;18.17;;
46463;SDS011;32161;48.148;-1.554;2022-12-18T11:41:32;34.97;;;17.73;;
46463;SDS011;32161;48.148;-1.554;2022-12-18T11:44:26;28.02;;;17.48;;
46463;SDS011;32161;48.148;-1.554;2022-12-18T11:47:01;30.75;;;17.83;;
46463;SDS011;32161;48.148;-1.554;2022-12-18T11:49:40;29.88;;;17.52;;
46463;SDS011;32161;48.148;-1.554;2022-12-18T11:52:09;30.02;;;17.38;;
46463;SDS011;32161;48.148;-1.554;2022-12-18T11:54:44;26.98;;;17.65;;
46463;SDS011;32161;48.148;-1.554;2022-12-18T11:57:14;36.08;;;19.95;;
46463;SDS011;32161;48.148;-1.554;2022-12-18T11:59:55;33.47;;;20.90;;
46463;SDS011;32161;48.148;-1.554;2022-12-18T12:02:39;31.63;;;18.63;;
46463;SDS011;32161;48.148;-1.554;2022-12-18T12:05:32;29.73;;;17.23;;
46463;SDS011;32161;48.148;-1.554;2022-12-18T12:08:13;28.17;;;17.38;;
46463;SDS011;32161;48.148;-1.554;2022-12-18T12:10:52;30.08;;;17.65;;
46463;SDS011;32161;48.148;-1.554;2022-12-18T12:13:32;29.38;;;18.08;;
46463;SDS011;32161;48.148;-1.554;2022-12-18T12:16:15;28.60;;;17.35;;
46463;SDS011;32161;48.148;-1.554;2022-12-18T12:18:56;27.90;;;16.83;;
46463;SDS011;32161;48.148;-1.554;2022-12-18T12:21:39;28.25;;;17.15;;
46463;SDS011;32161;48.148;-1.554;2022-12-18T12:24:16;28.95;;;17.45;;
46463;SDS011;32161;48.148;-1.554;2022-12-18T12:27:00;27.70;;;17.20;;
46463;SDS011;32161;48.148;-1.554;2022-12-18T12:29:42;32.72;;;20.05;;
46463;SDS011;32161;48.148;-1.554;2022-12-18T12:32:27;35.05;;;19.88;;
46463;SDS011;32161;48.148;-1.554;2022-12-18T12:35:25;31.98;;;18.25;;
46463;SDS011;32161;48.148;-1.554;2022-12-18T12:38:07;35.45;;;20.08;;
46463;SDS011;32161;48.148;-1.554;2022-12-18T12:40:39;30.83;;;19.40;;
46463;SDS011;32161;48.148;-1.554;2022-12-18T12:43:20;34.70;;;21.15;;
46463;SDS011;32161;48.148;-1.554;2022-12-18T12:45:53;33.85;;;20.38;;
46463;SDS011;32161;48.148;-1.554;2022-12-18T12:48:33;31.65;;;20.58;;
46463;SDS011;32161;48.148;-1.554;2022-12-18T12:51:11;31.88;;;19.85;;
46463;SDS011;32161;48.148;-1.554;2022-12-18T12:53:43;34.78;;;20.50;;
46463;SDS011;32161;48.148;-1.554;2022-12-18T12:56:13;34.65;;;19.17;;
46463;SDS011;32161;48.148;-1.554;2022-12-18T12:58:48;29.88;;;19.23;;
46463;SDS011;32161;48.148;-1.554;2022-12-18T13:01:28;31.85;;;18.65;;
46463;SDS011;32161;48.148;-1.554;2022-12-18T13:04:07;37.75;;;21.00;;
46463;SDS011;32161;48.148;-1.554;2022-12-18T13:06:50;32.65;;;20.15;;
46463;SDS011;32161;48.148;-1.554;2022-12-18T13:09:26;33.53;;;19.40;;
46463;SDS011;32161;48.148;-1.554;2022-12-18T13:12:01;30.13;;;17.88;;
46463;SDS011;32161;48.148;-1.554;2022-12-18T13:14:48;30.27;;;19.27;;
46463;SDS011;32161;48.148;-1.554;2022-12-18T13:17:29;37.05;;;21.00;;
46463;SDS011;32161;48.148;-1.554;2022-12-18T13:20:07;33.88;;;19.02;;
46463;SDS011;32161;48.148;-1.554;2022-12-18T13:22:40;33.58;;;18.55;;
46463;SDS011;32161;48.148;-1.554;2022-12-18T13:25:29;27.50;;;16.92;;
46463;SDS011;32161;48.148;-1.554;2022-12-18T13:28:03;30.42;;;18.38;;
46463;SDS011;32161;48.148;-1.554;2022-12-18T13:30:47;29.38;;;17.98;;
46463;SDS011;32161;48.148;-1.554;2022-12-18T13:33:37;29.75;;;17.45;;
46463;SDS011;32161;48.148;-1.554;2022-12-18T13:36:15;31.77;;;18.48;;
46463;SDS011;32161;48.148;-1.554;2022-12-18T13:39:20;31.20;;;17.55;;
46463;SDS011;32161;48.148;-1.554;2022-12-18T13:41:52;30.25;;;16.95;;
46463;SDS011;32161;48.148;-1.554;2022-12-18T13:44:54;31.77;;;17.42;;
46463;SDS011;32161;48.148;-1.554;2022-12-18T13:47:25;31.50;;;18.05;;
46463;SDS011;32161;48.148;-1.554;2022-12-18T13:50:09;45.38;;;23.30;;
46463;SDS011;32161;48.148;-1.554;2022-12-18T13:52:49;52.08;;;28.90;;
46463;SDS011;32161;48.148;-1.554;2022-12-18T13:55:20;52.70;;;30.30;;
46463;SDS011;32161;48.148;-1.554;2022-12-18T13:57:49;37.20;;;21.52;;
46463;SDS011;32161;48.148;-1.554;2022-12-18T14:00:29;31.65;;;19.33;;
46463;SDS011;32161;48.148;-1.554;2022-12-18T14:02:57;35.63;;;19.77;;
46463;SDS011;32161;48.148;-1.554;2022-12-18T14:05:26;33.88;;;19.10;;
46463;SDS011;32161;48.148;-1.554;2022-12-18T14:07:59;30.40;;;18.58;;
46463;SDS011;32161;48.148;-1.554;2022-12-18T14:10:32;32.28;;;19.10;;
46463;SDS011;32161;48.148;-1.554;2022-12-18T14:13:02;33.13;;;19.98;;
46463;SDS011;32161;48.148;-1.554;2022-12-18T14:15:35;35.05;;;19.90;;
46463;SDS011;32161;48.148;-1.554;2022-12-18T14:18:13;33.55;;;18.92;;
46463;SDS011;32161;48.148;-1.554;2022-12-18T14:20:48;40.08;;;22.55;;
46463;SDS011;32161;48.148;-1.554;2022-12-18T14:23:32;40.15;;;22.17;;
46463;SDS011;32161;48.148;-1.554;2022-12-18T14:26:17;41.03;;;20.60;;
46463;SDS011;32161;48.148;-1.554;2022-12-18T14:28:52;31.30;;;19.45;;
46463;SDS011;32161;48.148;-1.554;2022-12-18T14:31:21;35.10;;;19.13;;
46463;SDS011;32161;48.148;-1.554;2022-12-18T14:33:51;36.97;;;19.75;;
46463;SDS011;32161;48.148;-1.554;2022-12-18T14:36:20;36.22;;;18.55;;
46463;SDS011;32161;48.148;-1.554;2022-12-18T14:38:50;29.55;;;19.30;;
46463;SDS011;32161;48.148;-1.554;2022-12-18T14:41:21;34.03;;;18.88;;
46463;SDS011;32161;48.148;-1.554;2022-12-18T14:43:51;31.58;;;18.67;;
46463;SDS011;32161;48.148;-1.554;2022-12-18T14:46:28;35.40;;;18.00;;